Weather

DAILY 7 DAY TOTAL
onrain

Note: Some stations are located near irrigated fields and may also report irrigation

Alliston Mount Forest Blyth Guelph Grand Bend Strathroy Woodstock Belmont Simcoe Leamington Chatham West Lorne






West Lorne - Historical Weather Data
Date Max Temp (°C) Min Temp (°C) Avg Temp (°C) Rain (mm) 7Day Rain(mm) Total Rain(mm) Avg RH (%)
5/24/2018 27.0 8.2 17.9 0.0 2.8 63.4 76.7
5/23/2018 27.0 10.6 18.1 0.0 3.6 63.4 75.0
5/22/2018 21.5 12.1 15.7 0.0 3.6 63.4 97.0
5/21/2018 19.5 3.5 12.4 2.4 17.0 63.4 81.2
5/20/2018 17.8 7.3 13.1 0.0 14.6 61.0 92.5
5/19/2018 21.2 13.8 16.5 0.4 15.2 61.0 93.5
5/18/2018 22.1 11.1 16.4 0.0 29.4 60.6 59.6
5/17/2018 27.5 8.1 17.6 0.8 35.8 60.6 78.6
5/16/2018 22.6 6.9 15.3 0.0 35.4 59.8 87.8
5/15/2018 23.4 10.8 17.2 13.4 38.4 59.8 93.4
5/14/2018 18.8 7.5 13.5 0.0 25.0 46.4 99.5
5/13/2018 18.6 6.6 12.2 0.6 25.0 46.4 87.3
5/12/2018 13.6 5.8 8.1 14.6 25.2 45.8 96.2
5/11/2018 8.6 2.3 5.9 6.4 10.6 31.2 88.3
5/10/2018 20.4 7.1 16.6 0.4 11.4 24.8 83.6
5/9/2018 23.9 5.5 15.8 3.0 24.4 24.4 79.7
5/8/2018 21.3 3.1 13.1 0.0 21.4 21.4 70.2
5/7/2018 18.4 5.0 12.0 0.0 21.4 21.4 79.8
5/6/2018 23.0 10.3 15.1 0.8 21.4 21.4 85.7
5/5/2018 22.9 6.9 15.5 0.0 20.6 20.6 77.4
5/4/2018 23.5 8.4 16.1 7.2 20.6 20.6 89.0
5/3/2018 20.9 11.9 16.5 13.4 13.4 13.4 99.7
5/2/2018 26.0 14.6 21.1 0.0 0.0 0.0 58.9
5/1/2018 24.7 6.3 17.5 0.0 6.2 0.0 48.0